• Back
  •  
  • Position of Reservoir Gates
S.No.
No. of opened gates
Position of opening (In m)
Reporting Date
Reporting Time
Discharge in Cumecs
Discharge in Cusecs
Actual date and time of Gate opening
1
2
3
4
5
6
7
8
1 2 21/08/2013 12:04:10 AM 69.44
2 2 21/08/2013 12:04:10 AM 69.44
3 2 21/08/2013 8:01:10 AM 69.44
4 4 21/08/2013 10:13:10 AM 188.08
5 4 21/08/2013 11:58:10 AM 188.08
6 4 21/08/2013 2:19:10 PM 305
7 2 21/08/2013 5:28:10 PM 232.78
8 2 21/08/2013 7:16:10 PM 116
9 4 22/08/2013 8:25:12 PM 233
10 4 22/08/2013 6:25:12 PM 186.78
11 6 23/08/2013 6:28:12 AM 817
12 6 23/08/2013 7:58:12 AM 1522
13 4 23/08/2013 9:49:12 PM 232
14 2 24/08/2013 7:10:12 AM 116
15 1 25/08/2013 7:22:12 AM 58
16 1 26/08/2013 7:38:37 AM 58
17 1 26/08/2013 8:38:37 AM 58
18 1 26/08/2013 9:44:37 AM 58
19 1 27/08/2013 7:32:37 AM 36
20 1 27/08/2013 8:17:37 AM 36
21 0 27/08/2013 11:02:37 AM 0
22 1 01/09/2013 8:40:45 AM 8
23 1 03/09/2013 8:19:14 AM 8
24 1 04/09/2013 8:55:17 AM 18
25 1 05/09/2013 7:31:18 AM 12
26 1 05/09/2013 9:28:18 AM 12
27 1 07/09/2013 8:04:18 AM 8
28 1 08/09/2013 8:46:18 AM 8
29 0 09/09/2013 7:46:18 AM 0
30 1 09/10/2013 2:47:48 PM 6
31 4 0.51 22/08/2020 8:00:00 PM 200.7 7087.72
32 0 0 23/08/2020 12:00:00 PM 0 0
33 6 1.33 29/08/2020 8:00:00 AM 883.3 31193.74
34 8 3 29/08/2020 4:00:00 PM 2749 97080.93
35 8 3 30/08/2020 12:00:00 AM 2749 97080.93 Gates opened on dated 29.08.2020 at 4.00PM
36 0 0 30/08/2020 5:00:00 AM 0 0 ALL GATES CLOSED
37 0 0 31/08/2020 12:00:00 AM 0 0 All Gates Closed on Dated 30.08.2020 at 5.00 AM
38 4 0.5 10/09/2020 8:00:00 PM 233.3 8238.99
39 1 0.1 16/09/2020 12:00:00 PM 11.7 413.19
40 1 0.1 17/09/2020 8:00:00 AM 11.7 413.19
41 2 0.5 17/09/2020 12:00:00 PM 122 4308.43
42 1 0.1 18/09/2020 12:00:00 AM 11.75 414.95
43 0 0 18/09/2020 12:00:00 PM 0 0
44 1 0.5 23/09/2020 4:00:00 PM 58.85 2078.29
45 1 0.7 23/09/2020 8:00:00 PM 82.35 2908.19
46 1 0.7 24/09/2020 12:00:00 AM 82.35 2908.19
47 2 0.2 24/08/2016 3:00:00 AM 47 1659.8
48 1 0.2 26/09/2020 12:00:00 PM 23.55 831.67
49 1 0.2 27/09/2020 12:00:00 AM 23.55 831.67
50 2 0.5 21/08/2016 12:30:00 PM 177 6250.75
51 1 0.1 29/09/2020 12:00:00 PM 11.8 416.72
52 1 0.1 30/09/2020 8:00:00 AM 11.77 415.66
53 0 0 30/09/2020 12:00:00 PM 0 0 all gates closed at 12:00 PM
54 0 0 22/08/2016 4:00:00 AM 0 0 closed
55 2 0.3 24/08/2016 12:10:00 PM 70.59 2492.89
56 0 0 25/08/2016 1:00:00 AM 0 0 closed
57 1 1 04/09/2021 12:00:00 PM 102 3602.13
58 0 0 04/09/2021 12:00:00 PM 0 0
59 0 0 28/08/2016 8:00:01 AM 0 0 Gate closed at 8 am on 28.08.2016
60 6 0.83 27/08/2016 1:00:00 AM 588 20765.22
61 4 0.5 27/08/2016 11:20:00 AM 235 8299.02 Av. gate opening-0.50m
62 2 0.3 27/08/2016 3:30:00 PM 69.79 2464.63
63 2 1 31/08/2016 6:15:00 PM 235 8299.02
64 0 0 01/09/2016 1:00:00 AM 0 0 closed
65 2 0.2 01/09/2016 4:00:01 PM 47.03 1660.86 Opened at 1:15 pm on 01/09/2016
66 2 0.2 02/09/2016 12:00:00 AM 47 1659.8 Gate open-1/9/2016 1:15 PM
67 2 0.1 02/09/2016 10:30:00 AM 23.5 829.9 Gate open-0.10 M Time 10:30 AM
68 0 0 03/09/2016 4:40:00 AM 0 0 closed
69 2 0.05 08/09/2016 9:15:00 AM 11.77 415.66
70 2 0.3 17/09/2016 4:10:00 PM 70 2472.05
71 0 0 18/09/2016 12:00:00 AM 0 0 Closed 17/9/16 8:30 p m
72 2 0.1 20/09/2016 5:00:00 PM 47 1659.8
73 2 0.3 21/09/2016 5:00:00 PM 70 2472.05
74 2 0.3 22/09/2016 12:00:00 AM 70 2472.05 Gate open-21/9/2016 5 PM
75 2 0.5 09/09/2019 4:30:00 PM 116.4 4110.67
76 2 0.5 10/09/2019 8:00:00 AM 115.8 4089.48
77 8 1.62 10/09/2019 8:00:00 PM 1529 53996.63
78 8 1.02 11/09/2019 6:00:00 AM 1529 53996.63
79 2 0.5 11/09/2019 8:00:00 AM 114.2 4035.34
80 2 0.5 11/09/2019 8:00:00 AM 114.2 4032.97
81 2 0.5 12/09/2019 12:01:00 AM 113.8 4018.85
82 0 0 12/09/2019 8:00:00 AM 0 0 all gates are closed
83 4 1.75 14/09/2019 12:01:00 AM 922.6 32581.62
84 2 0.5 13/09/2019 8:00:00 AM 114.4 4040.04
85 2 0.5 13/09/2019 3:12:00 AM 113.5 4010.37
86 4 1 13/09/2019 12:00:00 PM 459.9 16241.37
87 4 1.75 13/09/2019 8:00:00 PM 922.6 32584.09
88 0 0 14/09/2019 8:00:00 AM 0 0 all gates are closed
89 4 0.5 14/09/2019 12:00:00 PM 222 7839.93
90 2 0.5 15/09/2019 8:00:00 AM 114.5 4043.57
91 2 0.5 15/09/2019 8:00:00 AM 114.5 4043.57
92 0 0 15/09/2019 4:00:00 PM 0 0 all gates are closed at 4:0pm today
93 2 0.5 17/09/2019 12:01:00 PM 127.7 4509.73
94 2 0.5 17/09/2019 8:01:00 AM 127.7 4509.73
95 2 0.5 17/09/2019 12:00:01 AM 127.7 4509.73
96 2 0.5 17/09/2019 8:00:00 AM 115.9 4095.13
97 4 1 17/09/2019 10:11:00 AM 461.6 16301.4
98 4 1 17/09/2019 10:30:00 AM 461.9 16313.76
99 0 0 17/09/2019 2:00:00 AM 0 0
100 0 0 17/09/2019 2:00:00 PM 0 0 All gates are closed at 2.00 pm on 17.09.2019
101 0 0 17/09/2019 2:00:00 PM 0 0 all gates are closed at 2:0pm today
102 2 0.5 19/09/2019 4:30:00 PM 47.93 1692.65
103 2 0.5 20/09/2019 12:01:00 AM 117.1 4137.51
104 2 0.2 20/09/2019 8:00:00 AM 46.55 1643.91
105 2 0.5 18/09/2019 8:00:00 AM 116.9 4130.09
106 4 0.5 18/09/2019 3:45:00 PM 234.5 8281.37
107 2 0.5 19/09/2019 8:00:00 PM 117.1 4137.51
108 2 0.3 20/09/2019 8:00:00 PM 69.62 2458.63
109 2 0.3 21/09/2019 9:00:00 AM 69.7 2461.46
110 2 0.1 23/09/2019 8:00:00 PM 23.13 816.84
111 2 0.15 25/09/2019 10:30:00 PM 35 1236.02
112 2 0.1 25/09/2019 8:00:00 AM 23.04 813.66
113 0 0 25/09/2019 4:30:00 PM 0 0
114 0 0 22/09/2019 10:00:00 AM 0 0 All Gates are closed
115 2 0.1 24/09/2019 12:01:00 AM 23.13 816.84
116 2 0.3 26/09/2019 8:00:00 AM 69.58 2457.22
117 4 0.5 28/09/2019 12:01:00 AM 232.7 8217.8
118 2 0.1 23/09/2019 1:12:00 AM 23.13 817.08
119 2 0.1 22/09/2019 4:00:00 PM 23.14 817.19
120 2 0.3 28/09/2019 8:00:00 AM 69.41 2451.21
121 2 0.2 24/09/2019 8:00:00 AM 23.07 814.72
122 2 0.1 24/09/2019 8:00:00 PM 23.05 814.01
123 2 0.15 26/09/2019 12:01:00 AM 34.81 1229.32
124 2 0.3 26/09/2019 4:00:00 PM 69.49 2454.04
125 2 0.1 26/09/2019 9:30:00 PM 23.12 816.48
126 2 0.1 27/09/2019 12:01:00 AM 23.12 816.59
127 0 0 27/09/2019 8:00:00 AM 0 0 all gates are closed
128 4 0.5 27/09/2019 8:00:00 PM 232.7 8217.8
129 0 0 28/09/2019 12:10:00 PM 0 0 all gates are closed
130 2 1 29/09/2019 8:00:00 AM 23.25 821.07
131 2 0.1 29/09/2019 8:00:00 AM 23.25 821.07
132 0 0 29/09/2019 2:00:00 PM 0 0 all gates are closed
133 2 0.1 01/10/2019 8:00:00 AM 23.41 826.72
134 2 0.1 02/10/2019 8:00:00 AM 25.5 900.53
135 2 0.1 02/10/2019 9:00:00 AM 23.41 827.01
136 2 0.2 01/10/2019 8:00:00 PM 47 1659.8
137 0 0 02/10/2019 4:00:00 PM 0 0 all gates are closed
138 1 0.1 04/10/2019 8:00:00 AM 11.77 415.66
139 0 0 04/10/2019 10:30:00 AM 0 0 all gates are closed
140 1 0.1 09/10/2019 8:00:00 AM 11.79 416.36
141 1 0.1 07/10/2019 8:00:00 AM 11.78 416.01
142 1 0.1 09/10/2019 8:00:00 AM 11.79 416.36
143 1 0.1 07/10/2019 8:00:00 AM 11.78 416.01
144 0 0 09/10/2019 12:11:00 PM 0 0
Powered by © Water Resources Department (MP). All Rights Reserved.